FYKT/KMP METAR and TAF weather

Enter ICAO airport designator
Station Type Date Time Source
FYKT METAR 2018/07/11 07:00 UTC NOAA

FYKT 110700Z 05010KT CAVOK 14/05 Q1027


Station Type Date Time Source
FYKT Decoded METAR 2018/07/11 07:00 UTC NOAA

Keetmanshoop, Namibia (FYKT) 26-32S 018-07E 1100M
Jul 11, 2018 - 03:00 AM EDT / 2018.07.11 0700 UTC
Wind: from the NE (050 degrees) at 12 MPH (10 KT):0
Visibility: greater than 7 mile(s):0
Temperature: 57 F (14 C)
Dew Point: 41 F (5 C)
Relative Humidity: 54%
Pressure (altimeter): 30.33 in. Hg (1027 hPa)
ob: FYKT 110700Z 05010KT CAVOK 14/05 Q1027
cycle: 7

Station Type Date Time Source
FYKT TAF 2018/07/21 12:18 UTC NOAA

TAF TAF FYKT 211000Z 2112/2212 03015KT CAVOK


Example: see airport list